sensor_id;sensor_type;location;lat;lon;timestamp;temperature;humidity
39957;DHT22;48483;44.640;7.494;2023-03-31T00:01:59;12.80;99.90
39957;DHT22;48483;44.640;7.494;2023-03-31T00:04:27;12.90;99.90
39957;DHT22;48483;44.640;7.494;2023-03-31T00:06:57;12.90;99.90
39957;DHT22;48483;44.640;7.494;2023-03-31T00:09:24;12.80;99.90
39957;DHT22;48483;44.640;7.494;2023-03-31T00:11:51;12.80;99.90
39957;DHT22;48483;44.640;7.494;2023-03-31T00:14:20;12.80;99.90
39957;DHT22;48483;44.640;7.494;2023-03-31T00:16:46;12.80;99.90
39957;DHT22;48483;44.640;7.494;2023-03-31T00:19:13;12.70;99.90
39957;DHT22;48483;44.640;7.494;2023-03-31T00:21:47;12.70;99.90
39957;DHT22;48483;44.640;7.494;2023-03-31T00:24:14;12.70;99.90
39957;DHT22;48483;44.640;7.494;2023-03-31T00:26:42;12.80;99.90
39957;DHT22;48483;44.640;7.494;2023-03-31T00:29:11;12.70;99.90
39957;DHT22;48483;44.640;7.494;2023-03-31T00:31:40;12.70;99.90
39957;DHT22;48483;44.640;7.494;2023-03-31T00:34:07;12.70;99.90
39957;DHT22;48483;44.640;7.494;2023-03-31T00:36:34;12.60;99.90
39957;DHT22;48483;44.640;7.494;2023-03-31T00:39:03;12.60;99.90
39957;DHT22;48483;44.640;7.494;2023-03-31T00:41:34;12.70;99.90
39957;DHT22;48483;44.640;7.494;2023-03-31T00:44:07;12.70;99.90
39957;DHT22;48483;44.640;7.494;2023-03-31T00:46:41;12.70;99.90
39957;DHT22;48483;44.640;7.494;2023-03-31T00:49:14;12.60;99.90
39957;DHT22;48483;44.640;7.494;2023-03-31T00:51:42;12.70;99.90
39957;DHT22;48483;44.640;7.494;2023-03-31T00:54:09;12.70;99.90
39957;DHT22;48483;44.640;7.494;2023-03-31T00:56:40;12.70;99.90
39957;DHT22;48483;44.640;7.494;2023-03-31T00:59:10;12.70;99.90
39957;DHT22;48483;44.640;7.494;2023-03-31T01:01:41;12.70;99.90
39957;DHT22;48483;44.640;7.494;2023-03-31T01:04:09;12.70;99.90
39957;DHT22;48483;44.640;7.494;2023-03-31T01:06:43;12.60;99.90
39957;DHT22;48483;44.640;7.494;2023-03-31T01:09:14;12.60;99.90
39957;DHT22;48483;44.640;7.494;2023-03-31T01:11:43;12.60;99.90
39957;DHT22;48483;44.640;7.494;2023-03-31T01:14:11;12.60;99.90
39957;DHT22;48483;44.640;7.494;2023-03-31T01:16:38;12.60;99.90
39957;DHT22;48483;44.640;7.494;2023-03-31T01:19:12;12.60;99.90
39957;DHT22;48483;44.640;7.494;2023-03-31T01:22:06;12.60;99.90
39957;DHT22;48483;44.640;7.494;2023-03-31T01:27:56;12.70;99.90
39957;DHT22;48483;44.640;7.494;2023-03-31T01:40:40;12.60;99.90
39957;DHT22;48483;44.640;7.494;2023-03-31T01:43:15;12.60;99.90
39957;DHT22;48483;44.640;7.494;2023-03-31T01:45:52;12.60;99.90
39957;DHT22;48483;44.640;7.494;2023-03-31T01:48:25;12.60;99.90
39957;DHT22;48483;44.640;7.494;2023-03-31T01:50:58;12.50;99.90
39957;DHT22;48483;44.640;7.494;2023-03-31T01:53:27;12.50;99.90
39957;DHT22;48483;44.640;7.494;2023-03-31T01:56:03;12.50;99.90
39957;DHT22;48483;44.640;7.494;2023-03-31T01:58:35;12.50;99.90
39957;DHT22;48483;44.640;7.494;2023-03-31T02:01:04;12.50;99.90
39957;DHT22;48483;44.640;7.494;2023-03-31T02:03:35;12.50;99.90
39957;DHT22;48483;44.640;7.494;2023-03-31T02:06:08;12.40;99.90
39957;DHT22;48483;44.640;7.494;2023-03-31T02:08:40;12.50;99.90
39957;DHT22;48483;44.640;7.494;2023-03-31T02:11:09;12.40;99.90
39957;DHT22;48483;44.640;7.494;2023-03-31T02:13:39;12.50;99.90
39957;DHT22;48483;44.640;7.494;2023-03-31T02:16:09;12.50;99.90
39957;DHT22;48483;44.640;7.494;2023-03-31T02:18:38;12.50;99.90
39957;DHT22;48483;44.640;7.494;2023-03-31T02:21:10;12.50;99.90
39957;DHT22;48483;44.640;7.494;2023-03-31T02:23:40;12.40;99.90
39957;DHT22;48483;44.640;7.494;2023-03-31T02:26:11;12.40;99.90
39957;DHT22;48483;44.640;7.494;2023-03-31T02:28:39;12.40;99.90
39957;DHT22;48483;44.640;7.494;2023-03-31T02:31:19;12.50;99.90
39957;DHT22;48483;44.640;7.494;2023-03-31T02:33:49;12.40;99.90
39957;DHT22;48483;44.640;7.494;2023-03-31T02:36:16;12.40;99.90
39957;DHT22;48483;44.640;7.494;2023-03-31T02:38:47;12.40;99.90
39957;DHT22;48483;44.640;7.494;2023-03-31T02:41:16;12.40;99.90
39957;DHT22;48483;44.640;7.494;2023-03-31T02:43:42;12.40;99.90
39957;DHT22;48483;44.640;7.494;2023-03-31T02:46:09;12.40;99.90
39957;DHT22;48483;44.640;7.494;2023-03-31T02:48:39;12.40;99.90
39957;DHT22;48483;44.640;7.494;2023-03-31T02:57:44;12.40;99.90
39957;DHT22;48483;44.640;7.494;2023-03-31T03:00:16;12.40;99.90
39957;DHT22;48483;44.640;7.494;2023-03-31T03:02:59;12.40;99.90
39957;DHT22;48483;44.640;7.494;2023-03-31T03:05:34;12.40;99.90
39957;DHT22;48483;44.640;7.494;2023-03-31T03:08:31;12.30;99.90
39957;DHT22;48483;44.640;7.494;2023-03-31T03:11:05;12.30;99.90
39957;DHT22;48483;44.640;7.494;2023-03-31T03:13:41;12.30;99.90
39957;DHT22;48483;44.640;7.494;2023-03-31T03:16:15;12.30;99.90
39957;DHT22;48483;44.640;7.494;2023-03-31T03:18:44;12.30;99.90
39957;DHT22;48483;44.640;7.494;2023-03-31T03:21:17;12.30;99.90
39957;DHT22;48483;44.640;7.494;2023-03-31T03:23:45;12.20;99.90
39957;DHT22;48483;44.640;7.494;2023-03-31T03:26:12;12.30;99.90
39957;DHT22;48483;44.640;7.494;2023-03-31T03:28:40;12.30;99.90
39957;DHT22;48483;44.640;7.494;2023-03-31T03:31:07;12.30;99.90
39957;DHT22;48483;44.640;7.494;2023-03-31T03:33:34;12.30;99.90
39957;DHT22;48483;44.640;7.494;2023-03-31T03:36:01;12.20;99.90
39957;DHT22;48483;44.640;7.494;2023-03-31T03:38:28;12.30;99.90
39957;DHT22;48483;44.640;7.494;2023-03-31T03:40:54;12.30;99.90
39957;DHT22;48483;44.640;7.494;2023-03-31T03:43:21;12.30;99.90
39957;DHT22;48483;44.640;7.494;2023-03-31T03:45:49;12.20;99.90
39957;DHT22;48483;44.640;7.494;2023-03-31T03:48:17;12.10;99.90
39957;DHT22;48483;44.640;7.494;2023-03-31T03:50:44;12.00;99.90
39957;DHT22;48483;44.640;7.494;2023-03-31T03:53:11;12.00;99.90
39957;DHT22;48483;44.640;7.494;2023-03-31T03:55:38;12.00;99.90
39957;DHT22;48483;44.640;7.494;2023-03-31T03:58:05;12.00;99.90
39957;DHT22;48483;44.640;7.494;2023-03-31T04:00:32;12.00;99.90
39957;DHT22;48483;44.640;7.494;2023-03-31T04:03:00;12.00;99.90
39957;DHT22;48483;44.640;7.494;2023-03-31T04:05:27;12.00;99.90
39957;DHT22;48483;44.640;7.494;2023-03-31T04:07:53;11.90;99.90
39957;DHT22;48483;44.640;7.494;2023-03-31T04:10:20;11.90;99.90
39957;DHT22;48483;44.640;7.494;2023-03-31T04:12:47;11.90;99.90
39957;DHT22;48483;44.640;7.494;2023-03-31T04:15:14;11.80;99.90
39957;DHT22;48483;44.640;7.494;2023-03-31T04:17:40;11.80;99.90
39957;DHT22;48483;44.640;7.494;2023-03-31T04:20:09;11.80;99.90
39957;DHT22;48483;44.640;7.494;2023-03-31T04:22:37;11.70;99.90
39957;DHT22;48483;44.640;7.494;2023-03-31T04:25:08;11.70;99.90
39957;DHT22;48483;44.640;7.494;2023-03-31T04:27:36;11.70;99.90
39957;DHT22;48483;44.640;7.494;2023-03-31T04:30:03;11.80;99.90
39957;DHT22;48483;44.640;7.494;2023-03-31T04:32:29;11.70;99.90
39957;DHT22;48483;44.640;7.494;2023-03-31T04:34:58;11.70;99.90
39957;DHT22;48483;44.640;7.494;2023-03-31T04:37:29;11.70;99.90
39957;DHT22;48483;44.640;7.494;2023-03-31T04:40:00;11.70;99.90
39957;DHT22;48483;44.640;7.494;2023-03-31T04:42:35;11.70;99.90
39957;DHT22;48483;44.640;7.494;2023-03-31T04:45:02;11.70;99.90
39957;DHT22;48483;44.640;7.494;2023-03-31T04:47:29;11.70;99.90
39957;DHT22;48483;44.640;7.494;2023-03-31T04:49:56;11.80;99.90
39957;DHT22;48483;44.640;7.494;2023-03-31T04:52:22;11.80;99.90
39957;DHT22;48483;44.640;7.494;2023-03-31T04:54:50;11.80;99.90
39957;DHT22;48483;44.640;7.494;2023-03-31T04:57:17;11.80;99.90
39957;DHT22;48483;44.640;7.494;2023-03-31T04:59:44;11.80;99.90
39957;DHT22;48483;44.640;7.494;2023-03-31T05:02:11;11.80;99.90
39957;DHT22;48483;44.640;7.494;2023-03-31T05:04:38;11.80;99.90
39957;DHT22;48483;44.640;7.494;2023-03-31T05:07:04;11.80;99.90
39957;DHT22;48483;44.640;7.494;2023-03-31T05:09:31;11.80;99.90
39957;DHT22;48483;44.640;7.494;2023-03-31T05:11:59;11.80;99.90
39957;DHT22;48483;44.640;7.494;2023-03-31T05:14:26;11.80;99.90
39957;DHT22;48483;44.640;7.494;2023-03-31T05:16:54;11.80;99.90
39957;DHT22;48483;44.640;7.494;2023-03-31T05:19:23;11.80;99.90
39957;DHT22;48483;44.640;7.494;2023-03-31T05:21:50;11.80;99.90
39957;DHT22;48483;44.640;7.494;2023-03-31T05:24:16;11.80;99.90
39957;DHT22;48483;44.640;7.494;2023-03-31T05:26:43;11.80;99.90
39957;DHT22;48483;44.640;7.494;2023-03-31T05:29:19;11.80;99.90
39957;DHT22;48483;44.640;7.494;2023-03-31T05:31:46;11.80;99.90
39957;DHT22;48483;44.640;7.494;2023-03-31T05:34:13;11.80;99.90
39957;DHT22;48483;44.640;7.494;2023-03-31T05:36:40;11.80;99.90
39957;DHT22;48483;44.640;7.494;2023-03-31T05:39:08;11.70;99.90
39957;DHT22;48483;44.640;7.494;2023-03-31T05:41:35;11.70;99.90
39957;DHT22;48483;44.640;7.494;2023-03-31T05:44:02;11.70;99.90
39957;DHT22;48483;44.640;7.494;2023-03-31T05:46:30;11.70;99.90
39957;DHT22;48483;44.640;7.494;2023-03-31T05:48:57;11.60;99.90
39957;DHT22;48483;44.640;7.494;2023-03-31T05:51:24;11.70;99.90
39957;DHT22;48483;44.640;7.494;2023-03-31T05:53:51;11.60;99.90
39957;DHT22;48483;44.640;7.494;2023-03-31T05:56:17;11.70;99.90
39957;DHT22;48483;44.640;7.494;2023-03-31T05:58:44;11.70;99.90
39957;DHT22;48483;44.640;7.494;2023-03-31T06:01:13;11.70;99.90
39957;DHT22;48483;44.640;7.494;2023-03-31T06:03:46;11.80;99.90
39957;DHT22;48483;44.640;7.494;2023-03-31T06:06:13;11.80;99.90
39957;DHT22;48483;44.640;7.494;2023-03-31T06:08:40;11.80;99.90
39957;DHT22;48483;44.640;7.494;2023-03-31T06:11:09;11.70;99.90
39957;DHT22;48483;44.640;7.494;2023-03-31T06:13:37;11.70;99.90
39957;DHT22;48483;44.640;7.494;2023-03-31T06:16:04;11.70;99.90
39957;DHT22;48483;44.640;7.494;2023-03-31T06:18:33;11.70;99.90
39957;DHT22;48483;44.640;7.494;2023-03-31T06:21:01;11.70;99.90
39957;DHT22;48483;44.640;7.494;2023-03-31T06:23:28;11.80;99.90
39957;DHT22;48483;44.640;7.494;2023-03-31T06:25:59;11.80;99.90
39957;DHT22;48483;44.640;7.494;2023-03-31T06:28:26;11.80;99.90
39957;DHT22;48483;44.640;7.494;2023-03-31T06:30:59;11.80;99.90
39957;DHT22;48483;44.640;7.494;2023-03-31T06:33:26;11.80;99.90
39957;DHT22;48483;44.640;7.494;2023-03-31T06:35:55;11.80;99.90
39957;DHT22;48483;44.640;7.494;2023-03-31T06:38:23;11.80;99.90
39957;DHT22;48483;44.640;7.494;2023-03-31T06:40:49;11.90;99.90
39957;DHT22;48483;44.640;7.494;2023-03-31T06:43:16;11.90;99.90
39957;DHT22;48483;44.640;7.494;2023-03-31T06:45:43;11.90;99.90
39957;DHT22;48483;44.640;7.494;2023-03-31T06:48:10;11.90;99.90
39957;DHT22;48483;44.640;7.494;2023-03-31T06:50:37;11.90;99.90
39957;DHT22;48483;44.640;7.494;2023-03-31T06:53:04;11.90;99.90
39957;DHT22;48483;44.640;7.494;2023-03-31T06:55:32;11.90;99.90
39957;DHT22;48483;44.640;7.494;2023-03-31T06:57:59;11.90;99.90
39957;DHT22;48483;44.640;7.494;2023-03-31T07:00:26;12.00;99.90
39957;DHT22;48483;44.640;7.494;2023-03-31T07:02:53;12.10;99.90
39957;DHT22;48483;44.640;7.494;2023-03-31T07:05:20;12.10;99.90
39957;DHT22;48483;44.640;7.494;2023-03-31T07:07:53;12.20;99.90
39957;DHT22;48483;44.640;7.494;2023-03-31T07:10:20;12.20;99.90
39957;DHT22;48483;44.640;7.494;2023-03-31T07:12:48;12.20;99.90
39957;DHT22;48483;44.640;7.494;2023-03-31T07:15:15;12.30;99.90
39957;DHT22;48483;44.640;7.494;2023-03-31T07:17:42;12.40;99.90
39957;DHT22;48483;44.640;7.494;2023-03-31T07:20:10;12.40;99.90
39957;DHT22;48483;44.640;7.494;2023-03-31T07:22:44;12.50;99.90
39957;DHT22;48483;44.640;7.494;2023-03-31T07:25:13;12.50;99.90
39957;DHT22;48483;44.640;7.494;2023-03-31T07:27:40;12.60;99.90
39957;DHT22;48483;44.640;7.494;2023-03-31T07:30:10;12.60;99.90
39957;DHT22;48483;44.640;7.494;2023-03-31T07:32:37;12.60;99.90
39957;DHT22;48483;44.640;7.494;2023-03-31T07:35:07;12.60;99.90
39957;DHT22;48483;44.640;7.494;2023-03-31T07:37:34;12.70;99.90
39957;DHT22;48483;44.640;7.494;2023-03-31T07:40:01;12.80;99.90
39957;DHT22;48483;44.640;7.494;2023-03-31T07:42:29;12.90;99.90
39957;DHT22;48483;44.640;7.494;2023-03-31T07:44:56;12.90;99.90
39957;DHT22;48483;44.640;7.494;2023-03-31T07:47:24;12.80;99.90
39957;DHT22;48483;44.640;7.494;2023-03-31T07:49:51;12.90;99.90
39957;DHT22;48483;44.640;7.494;2023-03-31T07:52:18;12.90;99.90
39957;DHT22;48483;44.640;7.494;2023-03-31T07:54:45;13.00;99.90
39957;DHT22;48483;44.640;7.494;2023-03-31T07:57:12;13.10;99.90
39957;DHT22;48483;44.640;7.494;2023-03-31T07:59:39;13.20;99.90
39957;DHT22;48483;44.640;7.494;2023-03-31T08:02:06;13.20;99.90
39957;DHT22;48483;44.640;7.494;2023-03-31T08:04:34;13.20;99.90
39957;DHT22;48483;44.640;7.494;2023-03-31T08:07:00;13.30;99.90
39957;DHT22;48483;44.640;7.494;2023-03-31T08:09:27;13.30;99.90
39957;DHT22;48483;44.640;7.494;2023-03-31T08:11:54;13.30;99.90
39957;DHT22;48483;44.640;7.494;2023-03-31T08:14:21;13.30;99.90
39957;DHT22;48483;44.640;7.494;2023-03-31T08:16:47;13.40;99.90
39957;DHT22;48483;44.640;7.494;2023-03-31T08:19:14;13.50;99.90
39957;DHT22;48483;44.640;7.494;2023-03-31T08:21:42;13.50;99.90
39957;DHT22;48483;44.640;7.494;2023-03-31T08:24:09;13.60;99.90
39957;DHT22;48483;44.640;7.494;2023-03-31T08:26:36;13.80;99.90
39957;DHT22;48483;44.640;7.494;2023-03-31T08:29:02;13.90;99.90
39957;DHT22;48483;44.640;7.494;2023-03-31T08:31:29;14.00;99.90
39957;DHT22;48483;44.640;7.494;2023-03-31T08:33:56;14.10;99.90
39957;DHT22;48483;44.640;7.494;2023-03-31T08:36:23;13.80;99.90
39957;DHT22;48483;44.640;7.494;2023-03-31T08:38:51;13.80;99.90
39957;DHT22;48483;44.640;7.494;2023-03-31T08:41:30;13.90;99.90
39957;DHT22;48483;44.640;7.494;2023-03-31T08:44:01;14.00;99.90
39957;DHT22;48483;44.640;7.494;2023-03-31T08:46:31;14.10;99.90
39957;DHT22;48483;44.640;7.494;2023-03-31T08:48:59;14.20;99.90
39957;DHT22;48483;44.640;7.494;2023-03-31T08:51:29;14.20;99.90
39957;DHT22;48483;44.640;7.494;2023-03-31T08:54:00;14.10;99.90
39957;DHT22;48483;44.640;7.494;2023-03-31T08:56:34;14.10;99.90
39957;DHT22;48483;44.640;7.494;2023-03-31T08:59:05;14.20;99.90
39957;DHT22;48483;44.640;7.494;2023-03-31T09:01:41;14.40;99.90
39957;DHT22;48483;44.640;7.494;2023-03-31T09:04:22;14.60;99.90
39957;DHT22;48483;44.640;7.494;2023-03-31T09:06:55;14.70;99.90
39957;DHT22;48483;44.640;7.494;2023-03-31T09:09:34;14.80;99.90
39957;DHT22;48483;44.640;7.494;2023-03-31T09:12:09;14.90;99.90
39957;DHT22;48483;44.640;7.494;2023-03-31T09:14:38;14.80;99.90
39957;DHT22;48483;44.640;7.494;2023-03-31T09:17:14;14.70;99.90
39957;DHT22;48483;44.640;7.494;2023-03-31T09:19:47;15.00;99.90
39957;DHT22;48483;44.640;7.494;2023-03-31T09:22:17;15.00;99.90
39957;DHT22;48483;44.640;7.494;2023-03-31T09:24:51;14.80;99.90
39957;DHT22;48483;44.640;7.494;2023-03-31T09:27:20;14.90;99.90
39957;DHT22;48483;44.640;7.494;2023-03-31T09:29:49;15.00;99.90
39957;DHT22;48483;44.640;7.494;2023-03-31T09:32:19;15.00;99.90
39957;DHT22;48483;44.640;7.494;2023-03-31T09:34:50;14.90;99.90
39957;DHT22;48483;44.640;7.494;2023-03-31T09:37:17;15.00;99.90
39957;DHT22;48483;44.640;7.494;2023-03-31T09:39:44;15.10;99.90
39957;DHT22;48483;44.640;7.494;2023-03-31T09:42:13;15.10;99.90
39957;DHT22;48483;44.640;7.494;2023-03-31T09:44:42;15.30;99.90
39957;DHT22;48483;44.640;7.494;2023-03-31T09:47:14;15.30;99.90
39957;DHT22;48483;44.640;7.494;2023-03-31T09:49:45;15.30;99.90
39957;DHT22;48483;44.640;7.494;2023-03-31T09:52:15;15.40;99.90
39957;DHT22;48483;44.640;7.494;2023-03-31T09:54:49;15.40;99.90
39957;DHT22;48483;44.640;7.494;2023-03-31T09:57:26;15.30;99.90
39957;DHT22;48483;44.640;7.494;2023-03-31T10:00:01;15.30;99.90
39957;DHT22;48483;44.640;7.494;2023-03-31T10:02:41;15.20;99.90
39957;DHT22;48483;44.640;7.494;2023-03-31T10:05:28;15.20;99.90
39957;DHT22;48483;44.640;7.494;2023-03-31T10:08:20;15.30;99.90
39957;DHT22;48483;44.640;7.494;2023-03-31T10:10:49;15.40;99.90
39957;DHT22;48483;44.640;7.494;2023-03-31T10:13:19;15.40;99.90
39957;DHT22;48483;44.640;7.494;2023-03-31T10:15:51;15.50;99.90
39957;DHT22;48483;44.640;7.494;2023-03-31T10:18:18;15.50;99.90
39957;DHT22;48483;44.640;7.494;2023-03-31T10:20:49;15.50;99.90
39957;DHT22;48483;44.640;7.494;2023-03-31T10:23:28;15.50;99.90
39957;DHT22;48483;44.640;7.494;2023-03-31T10:25:55;15.50;99.90
39957;DHT22;48483;44.640;7.494;2023-03-31T10:28:23;15.60;99.90
39957;DHT22;48483;44.640;7.494;2023-03-31T10:30:52;15.60;99.90
39957;DHT22;48483;44.640;7.494;2023-03-31T10:33:23;15.50;99.90
39957;DHT22;48483;44.640;7.494;2023-03-31T10:35:54;15.60;99.90
39957;DHT22;48483;44.640;7.494;2023-03-31T10:38:26;15.50;99.90
39957;DHT22;48483;44.640;7.494;2023-03-31T10:40:55;15.50;99.90
39957;DHT22;48483;44.640;7.494;2023-03-31T10:43:27;15.50;99.90
39957;DHT22;48483;44.640;7.494;2023-03-31T10:45:55;15.50;99.90
39957;DHT22;48483;44.640;7.494;2023-03-31T10:48:24;15.60;99.90
39957;DHT22;48483;44.640;7.494;2023-03-31T10:50:52;15.60;99.90
39957;DHT22;48483;44.640;7.494;2023-03-31T10:53:19;15.70;99.90
39957;DHT22;48483;44.640;7.494;2023-03-31T10:56:00;15.60;99.90
39957;DHT22;48483;44.640;7.494;2023-03-31T10:58:59;15.60;99.90
39957;DHT22;48483;44.640;7.494;2023-03-31T11:01:37;15.70;99.90
39957;DHT22;48483;44.640;7.494;2023-03-31T11:04:26;15.90;99.90
39957;DHT22;48483;44.640;7.494;2023-03-31T11:07:00;16.00;99.90
39957;DHT22;48483;44.640;7.494;2023-03-31T11:09:36;16.00;99.90
39957;DHT22;48483;44.640;7.494;2023-03-31T11:12:13;16.00;99.90
39957;DHT22;48483;44.640;7.494;2023-03-31T11:14:53;16.00;99.90
39957;DHT22;48483;44.640;7.494;2023-03-31T11:17:30;16.10;99.90
39957;DHT22;48483;44.640;7.494;2023-03-31T11:20:07;16.20;99.90
39957;DHT22;48483;44.640;7.494;2023-03-31T11:22:45;16.30;99.90
39957;DHT22;48483;44.640;7.494;2023-03-31T11:25:20;16.40;99.90
39957;DHT22;48483;44.640;7.494;2023-03-31T11:28:02;16.40;99.90
39957;DHT22;48483;44.640;7.494;2023-03-31T11:30:39;16.30;99.90
39957;DHT22;48483;44.640;7.494;2023-03-31T11:33:29;16.30;99.90
39957;DHT22;48483;44.640;7.494;2023-03-31T11:36:09;16.40;99.90
39957;DHT22;48483;44.640;7.494;2023-03-31T11:38:46;16.30;99.90
39957;DHT22;48483;44.640;7.494;2023-03-31T11:41:20;16.40;99.90
39957;DHT22;48483;44.640;7.494;2023-03-31T11:43:50;16.30;99.90
39957;DHT22;48483;44.640;7.494;2023-03-31T11:46:22;16.40;99.90
39957;DHT22;48483;44.640;7.494;2023-03-31T11:48:52;16.40;99.90
39957;DHT22;48483;44.640;7.494;2023-03-31T11:51:25;16.30;99.90
39957;DHT22;48483;44.640;7.494;2023-03-31T11:53:56;16.30;99.90
39957;DHT22;48483;44.640;7.494;2023-03-31T11:56:25;16.40;99.90
39957;DHT22;48483;44.640;7.494;2023-03-31T11:58:56;16.40;99.90
39957;DHT22;48483;44.640;7.494;2023-03-31T12:01:29;16.40;99.90
39957;DHT22;48483;44.640;7.494;2023-03-31T12:04:01;16.30;99.90
39957;DHT22;48483;44.640;7.494;2023-03-31T12:06:30;16.20;99.90
39957;DHT22;48483;44.640;7.494;2023-03-31T12:09:04;16.30;99.90
39957;DHT22;48483;44.640;7.494;2023-03-31T12:11:39;16.40;99.90
39957;DHT22;48483;44.640;7.494;2023-03-31T12:14:21;16.50;99.90
39957;DHT22;48483;44.640;7.494;2023-03-31T12:16:53;16.70;99.90
39957;DHT22;48483;44.640;7.494;2023-03-31T12:19:25;16.50;99.90
39957;DHT22;48483;44.640;7.494;2023-03-31T12:21:57;16.40;99.90
39957;DHT22;48483;44.640;7.494;2023-03-31T12:24:26;16.50;99.90
39957;DHT22;48483;44.640;7.494;2023-03-31T12:27:02;16.60;99.90
39957;DHT22;48483;44.640;7.494;2023-03-31T12:29:33;16.60;99.90
39957;DHT22;48483;44.640;7.494;2023-03-31T12:32:05;16.80;99.90
39957;DHT22;48483;44.640;7.494;2023-03-31T12:34:40;16.70;99.90
39957;DHT22;48483;44.640;7.494;2023-03-31T12:37:23;16.60;99.90
39957;DHT22;48483;44.640;7.494;2023-03-31T12:40:06;16.70;99.90
39957;DHT22;48483;44.640;7.494;2023-03-31T12:42:59;16.80;99.90
39957;DHT22;48483;44.640;7.494;2023-03-31T12:45:28;17.00;99.90
39957;DHT22;48483;44.640;7.494;2023-03-31T12:48:14;17.20;99.90
39957;DHT22;48483;44.640;7.494;2023-03-31T12:50:55;17.30;99.90
39957;DHT22;48483;44.640;7.494;2023-03-31T12:53:30;17.40;99.90
39957;DHT22;48483;44.640;7.494;2023-03-31T12:55:59;17.40;99.90
39957;DHT22;48483;44.640;7.494;2023-03-31T12:58:41;17.30;99.90
39957;DHT22;48483;44.640;7.494;2023-03-31T13:01:17;17.20;99.90
39957;DHT22;48483;44.640;7.494;2023-03-31T13:03:52;17.20;99.90
39957;DHT22;48483;44.640;7.494;2023-03-31T13:06:53;17.30;99.90
39957;DHT22;48483;44.640;7.494;2023-03-31T13:09:42;17.40;99.90
39957;DHT22;48483;44.640;7.494;2023-03-31T13:12:14;17.30;99.90
39957;DHT22;48483;44.640;7.494;2023-03-31T13:14:43;17.30;99.90
39957;DHT22;48483;44.640;7.494;2023-03-31T13:19:56;17.40;99.90
39957;DHT22;48483;44.640;7.494;2023-03-31T13:22:34;17.50;99.90
39957;DHT22;48483;44.640;7.494;2023-03-31T13:25:26;17.50;99.90
39957;DHT22;48483;44.640;7.494;2023-03-31T13:28:03;17.50;99.90
39957;DHT22;48483;44.640;7.494;2023-03-31T13:30:49;17.40;99.90
39957;DHT22;48483;44.640;7.494;2023-03-31T13:33:19;17.40;99.90
39957;DHT22;48483;44.640;7.494;2023-03-31T13:35:49;17.50;99.90
39957;DHT22;48483;44.640;7.494;2023-03-31T13:38:25;17.60;99.90
39957;DHT22;48483;44.640;7.494;2023-03-31T13:41:15;17.60;99.90
39957;DHT22;48483;44.640;7.494;2023-03-31T13:49:54;17.40;99.90
39957;DHT22;48483;44.640;7.494;2023-03-31T13:52:36;17.50;99.90
39957;DHT22;48483;44.640;7.494;2023-03-31T13:58:52;17.50;99.90
39957;DHT22;48483;44.640;7.494;2023-03-31T14:04:54;17.50;99.90
39957;DHT22;48483;44.640;7.494;2023-03-31T14:07:30;17.50;99.90
39957;DHT22;48483;44.640;7.494;2023-03-31T14:09:57;17.60;99.90
39957;DHT22;48483;44.640;7.494;2023-03-31T14:12:30;17.60;99.90
39957;DHT22;48483;44.640;7.494;2023-03-31T14:14:57;17.70;99.90
39957;DHT22;48483;44.640;7.494;2023-03-31T14:17:26;17.60;99.90
39957;DHT22;48483;44.640;7.494;2023-03-31T14:20:08;17.60;99.90
39957;DHT22;48483;44.640;7.494;2023-03-31T14:22:47;17.70;99.90
39957;DHT22;48483;44.640;7.494;2023-03-31T14:25:21;17.70;99.90
39957;DHT22;48483;44.640;7.494;2023-03-31T14:27:58;17.70;99.90
39957;DHT22;48483;44.640;7.494;2023-03-31T14:30:36;17.70;99.90
39957;DHT22;48483;44.640;7.494;2023-03-31T14:33:22;17.70;99.90
39957;DHT22;48483;44.640;7.494;2023-03-31T14:35:56;17.70;99.90
39957;DHT22;48483;44.640;7.494;2023-03-31T14:38:27;17.80;99.90
39957;DHT22;48483;44.640;7.494;2023-03-31T14:40:55;17.80;99.90
39957;DHT22;48483;44.640;7.494;2023-03-31T14:43:25;17.70;99.90
39957;DHT22;48483;44.640;7.494;2023-03-31T14:45:57;17.80;99.90
39957;DHT22;48483;44.640;7.494;2023-03-31T14:48:26;17.90;99.90
39957;DHT22;48483;44.640;7.494;2023-03-31T14:50:56;17.90;99.90
39957;DHT22;48483;44.640;7.494;2023-03-31T14:53:26;17.80;99.90
39957;DHT22;48483;44.640;7.494;2023-03-31T14:56:00;17.80;99.90
39957;DHT22;48483;44.640;7.494;2023-03-31T14:58:31;17.80;99.90
39957;DHT22;48483;44.640;7.494;2023-03-31T15:01:01;17.90;99.90
39957;DHT22;48483;44.640;7.494;2023-03-31T15:03:29;17.90;99.90
39957;DHT22;48483;44.640;7.494;2023-03-31T15:05:58;17.90;99.90
39957;DHT22;48483;44.640;7.494;2023-03-31T15:08:31;17.90;99.90
39957;DHT22;48483;44.640;7.494;2023-03-31T15:11:01;17.80;99.90
39957;DHT22;48483;44.640;7.494;2023-03-31T15:13:32;17.80;99.90
39957;DHT22;48483;44.640;7.494;2023-03-31T15:16:18;17.80;99.90
39957;DHT22;48483;44.640;7.494;2023-03-31T15:18:45;17.80;99.90
39957;DHT22;48483;44.640;7.494;2023-03-31T15:21:19;17.80;99.90
39957;DHT22;48483;44.640;7.494;2023-03-31T15:23:50;17.80;99.90
39957;DHT22;48483;44.640;7.494;2023-03-31T15:26:19;17.80;99.90
39957;DHT22;48483;44.640;7.494;2023-03-31T15:28:50;17.80;99.90
39957;DHT22;48483;44.640;7.494;2023-03-31T15:31:17;17.90;99.90
39957;DHT22;48483;44.640;7.494;2023-03-31T15:33:45;17.90;99.90
39957;DHT22;48483;44.640;7.494;2023-03-31T15:36:13;17.90;99.90
39957;DHT22;48483;44.640;7.494;2023-03-31T15:38:40;18.00;99.90
39957;DHT22;48483;44.640;7.494;2023-03-31T15:41:12;17.90;99.90
39957;DHT22;48483;44.640;7.494;2023-03-31T15:43:46;17.90;99.90
39957;DHT22;48483;44.640;7.494;2023-03-31T15:46:18;17.90;99.90
39957;DHT22;48483;44.640;7.494;2023-03-31T15:48:49;17.90;99.90
39957;DHT22;48483;44.640;7.494;2023-03-31T15:51:22;17.90;99.90
39957;DHT22;48483;44.640;7.494;2023-03-31T15:53:51;17.90;99.90
39957;DHT22;48483;44.640;7.494;2023-03-31T15:56:28;17.80;99.90
39957;DHT22;48483;44.640;7.494;2023-03-31T15:58:57;17.80;99.90
39957;DHT22;48483;44.640;7.494;2023-03-31T16:01:27;17.80;99.90
39957;DHT22;48483;44.640;7.494;2023-03-31T16:03:56;17.80;99.90
39957;DHT22;48483;44.640;7.494;2023-03-31T16:06:31;17.80;99.90
39957;DHT22;48483;44.640;7.494;2023-03-31T16:09:01;17.70;99.90
39957;DHT22;48483;44.640;7.494;2023-03-31T16:11:36;17.70;99.90
39957;DHT22;48483;44.640;7.494;2023-03-31T16:14:07;17.70;99.90
39957;DHT22;48483;44.640;7.494;2023-03-31T16:16:36;17.80;99.90
39957;DHT22;48483;44.640;7.494;2023-03-31T16:19:06;17.80;99.90
39957;DHT22;48483;44.640;7.494;2023-03-31T16:21:37;17.80;99.90
39957;DHT22;48483;44.640;7.494;2023-03-31T16:24:05;17.70;99.90
39957;DHT22;48483;44.640;7.494;2023-03-31T16:26:35;17.70;99.90
39957;DHT22;48483;44.640;7.494;2023-03-31T16:29:04;17.60;99.90
39957;DHT22;48483;44.640;7.494;2023-03-31T16:31:33;17.60;99.90